Time;durP1;ratioP1;P1;durP2;ratioP2;P2;SDS_P1;SDS_P2;PMS_P1;PMS_P2;Temp;Humidity;BMP_temperature;BMP_pressure;BME280_temperature;BME280_humidity;BME280_pressure;Samples;Min_cycle;Max_cycle;Signal;HPM_P1;HPM_P2
2023/01/30 00:02:13;;;;;;;1.50;1.20;;;25.10;99.90;;;;;;5047430;28;20196;-81
2023/01/30 00:04:44;;;;;;;2.72;1.30;;;25.10;99.90;;;;;;5045609;28;20208;-82
2023/01/30 00:07:31;;;;;;;7.20;1.30;;;25.10;99.90;;;;;;5050710;28;20203;-82
2023/01/30 00:10:02;;;;;;;4.38;1.13;;;25.20;99.90;;;;;;5047902;28;20211;-82
2023/01/30 00:12:33;;;;;;;1.52;1.20;;;25.20;99.90;;;;;;5045018;28;20204;-82
2023/01/30 00:15:04;;;;;;;0.95;0.95;;;25.10;99.90;;;;;;5045872;28;20254;-82
2023/01/30 00:17:35;;;;;;;1.33;0.98;;;25.20;99.90;;;;;;5043900;28;21884;-82
2023/01/30 00:20:07;;;;;;;1.67;1.15;;;25.10;99.90;;;;;;5046321;28;20228;-82
2023/01/30 00:22:41;;;;;;;1.40;1.17;;;25.20;99.90;;;;;;5048682;28;20385;-81
2023/01/30 00:25:12;;;;;;;1.60;1.00;;;25.20;99.90;;;;;;5048464;28;20269;-81
2023/01/30 00:27:46;;;;;;;2.72;0.90;;;25.30;99.90;;;;;;5048450;28;20208;-81
2023/01/30 00:30:17;;;;;;;1.98;1.30;;;25.40;99.90;;;;;;5053375;28;20215;-81
2023/01/30 00:32:48;;;;;;;1.30;1.08;;;25.40;99.90;;;;;;5047015;28;20196;-82
2023/01/30 00:35:19;;;;;;;2.08;0.93;;;25.40;99.90;;;;;;5045845;28;20219;-81
2023/01/30 00:37:52;;;;;;;1.38;1.00;;;25.50;99.90;;;;;;5048152;28;20211;-82
2023/01/30 00:40:24;;;;;;;3.40;1.27;;;25.40;99.90;;;;;;5051657;28;20742;-81
2023/01/30 00:48:31;;;;;;;1.67;0.98;;;25.50;99.90;;;;;;5053499;28;20295;-82
2023/01/30 00:51:02;;;;;;;1.10;1.00;;;25.50;99.90;;;;;;5057468;28;20677;-82
2023/01/30 00:53:35;;;;;;;2.00;0.90;;;25.50;99.90;;;;;;5075970;28;20200;-82
2023/01/30 00:56:06;;;;;;;1.00;0.90;;;25.50;99.90;;;;;;5086243;28;20231;-82
2023/01/30 00:58:37;;;;;;;2.90;1.10;;;25.40;99.90;;;;;;5050589;28;20192;-81
2023/01/30 01:01:08;;;;;;;1.48;1.00;;;25.50;99.90;;;;;;5049851;28;20207;-81
2023/01/30 01:03:39;;;;;;;2.95;1.30;;;25.50;99.90;;;;;;5066578;28;20287;-81
2023/01/30 01:06:12;;;;;;;2.75;1.00;;;25.70;99.90;;;;;;5072993;28;20589;-82
2023/01/30 01:08:45;;;;;;;2.05;1.27;;;25.70;99.90;;;;;;5068307;28;20204;-82
2023/01/30 01:11:23;;;;;;;2.25;1.20;;;25.80;99.90;;;;;;5073359;28;20215;-82
2023/01/30 01:13:56;;;;;;;2.78;1.20;;;25.70;99.90;;;;;;5068027;28;20314;-81
2023/01/30 01:16:33;;;;;;;1.00;0.90;;;25.70;99.90;;;;;;5056015;28;20192;-82
2023/01/30 01:19:05;;;;;;;2.70;0.98;;;25.60;99.90;;;;;;5073356;28;20690;-81
2023/01/30 01:21:37;;;;;;;0.82;0.82;;;25.70;99.90;;;;;;5054880;28;20580;-81
2023/01/30 01:24:14;;;;;;;1.20;0.88;;;25.60;99.90;;;;;;5076358;28;20191;-80
2023/01/30 01:26:46;;;;;;;2.65;1.02;;;25.60;99.90;;;;;;5053141;28;20200;-82
2023/01/30 01:29:19;;;;;;;2.25;1.00;;;25.60;99.90;;;;;;5065504;28;20667;-81
2023/01/30 01:31:50;;;;;;;2.05;1.10;;;25.70;99.90;;;;;;5073274;28;20587;-82
2023/01/30 01:34:21;;;;;;;0.90;0.90;;;25.80;99.90;;;;;;5061035;28;20229;-82
2023/01/30 01:36:56;;;;;;;0.90;0.90;;;25.90;99.90;;;;;;5052723;28;20254;-80
2023/01/30 01:41:00;;;;;;;1.33;0.90;;;26.00;99.90;;;;;;5068394;28;20214;-81
2023/01/30 01:42:18;;;;;;;1.67;1.00;;;26.20;99.90;;;;;;5062296;28;20222;-81
2023/01/30 01:45:06;;;;;;;0.82;0.82;;;26.30;99.90;;;;;;5066499;28;20597;-81
2023/01/30 01:47:38;;;;;;;1.85;0.90;;;26.50;99.90;;;;;;5070443;28;20192;-80
2023/01/30 01:50:14;;;;;;;1.10;0.98;;;26.60;99.90;;;;;;5058576;28;20212;-80
2023/01/30 01:52:45;;;;;;;2.25;0.98;;;26.70;99.90;;;;;;5063517;28;20290;-80
2023/01/30 01:55:20;;;;;;;1.40;0.90;;;26.80;99.90;;;;;;5085923;28;20188;-81
2023/01/30 01:57:54;;;;;;;5.68;1.08;;;27.00;99.90;;;;;;5071243;28;20199;-81
2023/01/30 02:00:26;;;;;;;1.20;0.90;;;27.10;99.90;;;;;;5060118;28;20223;-79
2023/01/30 02:03:01;;;;;;;1.42;0.90;;;27.30;99.90;;;;;;5069382;28;20192;-80
2023/01/30 02:05:36;;;;;;;1.33;0.90;;;27.30;99.90;;;;;;5071999;28;20203;-82
2023/01/30 02:08:10;;;;;;;1.15;0.85;;;27.30;99.90;;;;;;5061975;28;20210;-82
2023/01/30 02:10:47;;;;;;;1.17;0.90;;;27.30;99.90;;;;;;5060776;28;20211;-82
2023/01/30 02:13:18;;;;;;;2.00;1.10;;;27.40;99.90;;;;;;5056957;28;20298;-82
2023/01/30 02:15:49;;;;;;;2.03;0.90;;;27.50;99.90;;;;;;5069714;28;20200;-82
2023/01/30 02:18:21;;;;;;;3.35;1.08;;;27.50;99.90;;;;;;5068739;28;20195;-82
2023/01/30 02:21:05;;;;;;;1.35;0.80;;;27.60;99.90;;;;;;5069844;28;20611;-83
2023/01/30 02:24:02;;;;;;;0.80;0.80;;;27.70;99.90;;;;;;5059720;28;20195;-82
2023/01/30 02:26:51;;;;;;;1.35;0.90;;;27.80;99.90;;;;;;5069382;28;20199;-82
2023/01/30 02:29:51;;;;;;;0.98;0.90;;;28.00;99.90;;;;;;5070264;28;20730;-81
2023/01/30 02:32:29;;;;;;;4.03;1.40;;;28.10;99.90;;;;;;5050145;28;20279;-81
2023/01/30 02:35:06;;;;;;;2.72;0.90;;;28.20;99.90;;;;;;5061654;28;20605;-81
2023/01/30 02:37:49;;;;;;;1.05;0.90;;;28.40;99.90;;;;;;5068775;28;20715;-82
2023/01/30 02:40:36;;;;;;;1.38;0.73;;;28.40;99.90;;;;;;5064653;28;20641;-82
2023/01/30 02:43:15;;;;;;;1.60;1.00;;;28.50;99.90;;;;;;5064125;28;20712;-82
2023/01/30 02:45:53;;;;;;;1.42;1.10;;;28.60;99.90;;;;;;5061029;28;20275;-82
2023/01/30 02:48:30;;;;;;;1.02;0.93;;;28.70;99.90;;;;;;5062906;28;20211;-81
2023/01/30 02:51:05;;;;;;;2.45;0.90;;;28.60;99.90;;;;;;5068838;28;20202;-81
2023/01/30 02:53:37;;;;;;;1.58;1.13;;;28.70;99.90;;;;;;5073833;28;20191;-82
2023/01/30 02:56:09;;;;;;;1.38;1.00;;;28.70;99.90;;;;;;5075074;28;20196;-83
2023/01/30 02:58:44;;;;;;;1.27;1.08;;;28.80;99.90;;;;;;5072751;28;20583;-83
2023/01/30 03:01:45;;;;;;;1.33;1.10;;;28.80;99.90;;;;;;5068753;28;20588;-83
2023/01/30 03:04:43;;;;;;;1.60;1.02;;;28.80;99.90;;;;;;5068677;28;20196;-82
2023/01/30 03:07:28;;;;;;;1.73;1.05;;;28.90;99.90;;;;;;5060304;28;20745;-81
2023/01/30 03:10:04;;;;;;;1.90;1.17;;;29.00;99.90;;;;;;5063909;28;20749;-82
2023/01/30 03:12:45;;;;;;;1.00;1.00;;;29.10;99.90;;;;;;5070657;28;20274;-83
2023/01/30 03:15:25;;;;;;;2.25;1.25;;;29.20;99.90;;;;;;5066861;28;20283;-81
2023/01/30 03:17:56;;;;;;;1.35;0.93;;;29.40;99.90;;;;;;5069135;28;20196;-81
2023/01/30 03:20:30;;;;;;;1.10;1.00;;;29.40;99.90;;;;;;5061627;28;20337;-82
2023/01/30 03:23:00;;;;;;;2.17;0.98;;;29.40;99.90;;;;;;5075159;28;20290;-81
2023/01/30 03:25:32;;;;;;;3.35;1.30;;;29.50;99.90;;;;;;5068819;28;20196;-82
2023/01/30 03:28:06;;;;;;;1.08;0.90;;;29.60;99.90;;;;;;5069626;28;20198;-81
2023/01/30 03:30:37;;;;;;;2.10;1.05;;;29.60;99.90;;;;;;5057525;28;20207;-82
2023/01/30 03:33:08;;;;;;;3.58;1.10;;;29.70;99.90;;;;;;5053932;28;20206;-82
2023/01/30 03:35:42;;;;;;;1.58;1.00;;;29.70;99.90;;;;;;5066491;28;20200;-82
2023/01/30 03:38:13;;;;;;;1.85;1.20;;;29.70;99.90;;;;;;5071284;28;20681;-83
2023/01/30 03:40:44;;;;;;;1.08;1.08;;;29.80;99.90;;;;;;5062922;28;20224;-82
2023/01/30 03:43:17;;;;;;;1.98;1.20;;;29.80;99.90;;;;;;5060019;28;20220;-81
2023/01/30 03:45:48;;;;;;;1.27;1.17;;;30.00;99.90;;;;;;5070081;28;20279;-80
2023/01/30 03:48:18;;;;;;;2.47;1.10;;;30.00;99.90;;;;;;5069475;28;20206;-82
2023/01/30 03:50:51;;;;;;;3.63;1.10;;;30.10;99.90;;;;;;5067322;28;20196;-82
2023/01/30 03:53:22;;;;;;;1.40;1.30;;;30.20;99.90;;;;;;5065674;28;20192;-81
2023/01/30 03:55:53;;;;;;;1.60;1.23;;;30.20;99.90;;;;;;5077409;28;20227;-82
2023/01/30 03:58:24;;;;;;;2.33;1.13;;;30.30;99.90;;;;;;5064805;28;20565;-82
2023/01/30 04:00:57;;;;;;;2.97;1.10;;;30.20;99.90;;;;;;5074022;28;20224;-81
2023/01/30 04:03:30;;;;;;;1.90;1.25;;;30.10;99.90;;;;;;5060275;28;20201;-81
2023/01/30 04:06:03;;;;;;;1.65;1.17;;;30.10;99.90;;;;;;5070635;28;20645;-82
2023/01/30 04:08:37;;;;;;;3.65;1.50;;;29.90;99.90;;;;;;5078350;28;20273;-82
2023/01/30 04:11:18;;;;;;;5.43;1.60;;;29.70;99.90;;;;;;5078589;28;20262;-82
2023/01/30 04:13:50;;;;;;;1.75;1.30;;;29.70;99.90;;;;;;5081243;28;20719;-80
2023/01/30 04:16:23;;;;;;;2.28;1.50;;;29.60;99.90;;;;;;5071315;28;20261;-81
2023/01/30 04:18:56;;;;;;;1.63;1.20;;;29.50;99.90;;;;;;5076798;28;20196;-83
2023/01/30 04:21:30;;;;;;;3.53;1.38;;;29.40;99.90;;;;;;5072505;28;20346;-81
2023/01/30 04:24:01;;;;;;;2.78;1.40;;;29.30;99.90;;;;;;5079517;28;20202;-80
2023/01/30 04:26:32;;;;;;;4.72;1.50;;;29.10;99.90;;;;;;5060224;28;20202;-81
2023/01/30 04:29:06;;;;;;;2.05;1.25;;;29.00;99.90;;;;;;5074605;28;20255;-80
2023/01/30 04:31:39;;;;;;;2.88;1.55;;;28.90;99.90;;;;;;5061541;28;20196;-81
2023/01/30 04:34:14;;;;;;;1.90;1.38;;;28.70;99.90;;;;;;5062542;28;20191;-81
2023/01/30 04:36:48;;;;;;;2.85;1.33;;;28.60;99.90;;;;;;5076453;28;20283;-81
2023/01/30 04:39:19;;;;;;;2.42;1.50;;;28.60;99.90;;;;;;5076047;28;20203;-82
2023/01/30 04:41:50;;;;;;;2.55;1.33;;;28.60;99.90;;;;;;5073113;28;20223;-83
2023/01/30 04:44:21;;;;;;;2.55;1.58;;;28.60;99.90;;;;;;5070720;28;20219;-81
2023/01/30 04:46:52;;;;;;;2.55;1.48;;;28.60;99.90;;;;;;5064596;28;20203;-82
2023/01/30 04:49:23;;;;;;;2.58;1.30;;;28.70;99.90;;;;;;5062455;28;20291;-82
2023/01/30 04:51:59;;;;;;;2.03;1.48;;;28.80;99.90;;;;;;5068822;28;20201;-86
2023/01/30 04:54:30;;;;;;;1.70;1.35;;;28.90;99.90;;;;;;5077296;28;20263;-82
2023/01/30 04:57:00;;;;;;;1.63;1.40;;;29.10;99.90;;;;;;5082042;28;20200;-81
2023/01/30 04:59:31;;;;;;;1.50;1.30;;;29.10;99.90;;;;;;5066415;28;20214;-83
2023/01/30 05:02:02;;;;;;;1.42;1.25;;;29.10;99.90;;;;;;5066862;28;20232;-81
2023/01/30 05:04:33;;;;;;;1.40;1.30;;;29.20;99.90;;;;;;5069711;28;20189;-82
2023/01/30 05:07:06;;;;;;;1.40;1.30;;;29.10;99.90;;;;;;5064776;28;20658;-82
2023/01/30 05:09:36;;;;;;;1.83;1.30;;;29.10;99.90;;;;;;5075407;28;20227;-81
2023/01/30 05:12:07;;;;;;;1.08;1.00;;;29.00;99.90;;;;;;5070225;28;20208;-81
2023/01/30 05:14:41;;;;;;;3.28;1.60;;;28.90;99.90;;;;;;5072352;28;20563;-80
2023/01/30 05:17:12;;;;;;;3.33;1.50;;;28.60;99.90;;;;;;5062318;28;20228;-82
2023/01/30 05:19:43;;;;;;;5.00;1.33;;;28.50;99.90;;;;;;5063890;28;20661;-81
2023/01/30 05:22:16;;;;;;;2.95;2.00;;;28.40;99.90;;;;;;5071253;28;20200;-81
2023/01/30 05:24:47;;;;;;;3.83;1.58;;;28.30;99.90;;;;;;5072563;28;20192;-81
2023/01/30 05:27:18;;;;;;;2.63;1.90;;;28.20;99.90;;;;;;5061252;28;20222;-81
2023/01/30 05:29:51;;;;;;;3.28;1.63;;;28.10;99.90;;;;;;5073330;28;20259;-82
2023/01/30 05:32:24;;;;;;;4.07;2.05;;;28.10;99.90;;;;;;5063057;28;20635;-82
2023/01/30 05:34:56;;;;;;;5.93;1.90;;;28.10;99.90;;;;;;5057463;28;20706;-83
2023/01/30 05:37:29;;;;;;;2.90;1.90;;;28.00;99.90;;;;;;5071599;28;20667;-82
2023/01/30 05:40:00;;;;;;;3.95;1.58;;;27.90;99.90;;;;;;5059273;28;20240;-82
2023/01/30 05:42:31;;;;;;;4.28;2.20;;;27.90;99.90;;;;;;5074056;28;20196;-82
2023/01/30 05:45:02;;;;;;;6.32;2.38;;;27.90;99.90;;;;;;5073990;28;20234;-81
2023/01/30 05:47:32;;;;;;;4.50;2.00;;;27.80;99.90;;;;;;5074503;28;20249;-82
2023/01/30 05:50:06;;;;;;;7.35;2.05;;;27.70;99.90;;;;;;5058586;28;20200;-81
2023/01/30 05:52:40;;;;;;;4.18;1.95;;;27.70;99.90;;;;;;5068088;28;20642;-82
2023/01/30 05:55:11;;;;;;;4.90;2.13;;;27.60;99.90;;;;;;5086335;28;20223;-81
2023/01/30 05:57:43;;;;;;;3.63;1.90;;;27.60;99.90;;;;;;5072439;28;20200;-80
2023/01/30 06:00:14;;;;;;;4.55;2.10;;;27.60;99.90;;;;;;5072610;28;20853;-80
2023/01/30 06:02:45;;;;;;;5.32;2.30;;;27.50;99.90;;;;;;5072709;28;20206;-80
2023/01/30 06:05:16;;;;;;;3.65;2.20;;;27.40;99.90;;;;;;5070729;28;20187;-81
2023/01/30 06:07:49;;;;;;;3.53;2.20;;;27.40;99.90;;;;;;5072114;28;20640;-81
2023/01/30 06:10:20;;;;;;;7.15;2.63;;;27.30;99.90;;;;;;5071034;28;20233;-81
2023/01/30 06:12:50;;;;;;;4.13;2.20;;;27.20;99.90;;;;;;5070665;28;20280;-82
2023/01/30 06:15:22;;;;;;;8.20;2.90;;;27.10;99.90;;;;;;5050731;28;20207;-81
2023/01/30 06:17:53;;;;;;;7.60;3.72;;;27.00;99.90;;;;;;5051463;28;20287;-81
2023/01/30 06:20:24;;;;;;;9.35;3.53;;;26.90;99.90;;;;;;5056665;28;20286;-81
2023/01/30 06:22:59;;;;;;;6.75;3.08;;;26.60;99.90;;;;;;5069460;28;20206;-82
2023/01/30 06:25:30;;;;;;;5.80;1.90;;;26.50;99.90;;;;;;5064546;28;20647;-82
2023/01/30 06:28:02;;;;;;;8.40;2.03;;;26.30;99.90;;;;;;5053677;28;20614;-82
2023/01/30 06:30:33;;;;;;;9.68;2.95;;;26.20;99.90;;;;;;5061773;28;20286;-82
2023/01/30 06:33:05;;;;;;;8.88;3.47;;;25.80;99.90;;;;;;5070981;28;20593;-82
2023/01/30 06:35:36;;;;;;;7.43;2.33;;;25.30;99.90;;;;;;5069268;28;20207;-82
2023/01/30 06:38:10;;;;;;;8.32;2.78;;;24.90;99.90;;;;;;5070346;28;20210;-82
2023/01/30 06:40:41;;;;;;;5.97;2.58;;;24.50;99.90;;;;;;5063003;28;20212;-82
2023/01/30 06:43:12;;;;;;;9.43;3.90;;;24.50;99.90;;;;;;5064767;28;20230;-83
2023/01/30 06:45:43;;;;;;;5.35;2.47;;;24.50;99.90;;;;;;5070584;28;20647;-83
2023/01/30 06:48:14;;;;;;;7.50;2.40;;;24.40;99.90;;;;;;5060859;28;20659;-83
2023/01/30 06:50:47;;;;;;;8.05;2.60;;;24.40;99.90;;;;;;5066533;28;20294;-82
2023/01/30 06:53:21;;;;;;;7.97;2.45;;;24.30;99.90;;;;;;5080943;28;20223;-82
2023/01/30 06:55:51;;;;;;;6.32;2.42;;;24.40;99.90;;;;;;5083108;28;20192;-82
2023/01/30 06:58:22;;;;;;;9.05;2.40;;;24.40;99.90;;;;;;5060271;28;20575;-81
2023/01/30 07:00:53;;;;;;;9.77;2.40;;;24.30;99.90;;;;;;5070534;28;20220;-81
2023/01/30 07:03:25;;;;;;;7.07;2.30;;;24.20;99.90;;;;;;5069554;28;20305;-82
2023/01/30 07:05:56;;;;;;;7.05;2.40;;;24.20;99.90;;;;;;5062953;28;20192;-81
2023/01/30 07:08:28;;;;;;;9.98;3.50;;;24.10;99.90;;;;;;5060194;28;20206;-81
2023/01/30 07:11:00;;;;;;;3.40;1.60;;;24.20;99.90;;;;;;5071929;28;20205;-81
2023/01/30 07:13:30;;;;;;;2.75;1.40;;;24.10;99.90;;;;;;5071702;28;20566;-81
2023/01/30 07:16:03;;;;;;;2.13;1.13;;;24.00;99.90;;;;;;5071746;28;20358;-81
2023/01/30 07:18:34;;;;;;;1.70;0.90;;;23.90;99.90;;;;;;5070613;28;20672;-81
2023/01/30 07:21:05;;;;;;;4.57;1.08;;;23.90;99.90;;;;;;5067837;28;20238;-81
2023/01/30 07:23:39;;;;;;;2.60;1.17;;;23.90;99.90;;;;;;5057406;28;20200;-81
2023/01/30 07:26:11;;;;;;;5.05;1.40;;;23.90;99.90;;;;;;5071723;28;20209;-81
2023/01/30 07:28:42;;;;;;;4.07;1.35;;;23.90;99.90;;;;;;5072460;28;20291;-81
2023/01/30 07:31:13;;;;;;;6.25;1.63;;;23.90;99.90;;;;;;5072862;28;20261;-81
2023/01/30 07:33:44;;;;;;;3.85;1.17;;;23.90;99.90;;;;;;5076552;28;20196;-81
2023/01/30 07:36:15;;;;;;;6.32;1.20;;;23.90;99.90;;;;;;5076364;28;20202;-80
2023/01/30 07:38:50;;;;;;;4.43;1.23;;;23.90;99.90;;;;;;5073721;28;20284;-80
2023/01/30 07:41:21;;;;;;;4.93;1.08;;;23.80;99.90;;;;;;5074301;28;20218;-81
2023/01/30 07:43:52;;;;;;;5.53;1.17;;;23.80;99.90;;;;;;5076988;28;20688;-81
2023/01/30 07:46:23;;;;;;;4.38;0.93;;;23.70;99.90;;;;;;5063613;28;20283;-80
2023/01/30 07:48:54;;;;;;;2.90;0.88;;;23.60;99.90;;;;;;5071124;28;20192;-80
2023/01/30 07:51:25;;;;;;;5.22;1.30;;;23.60;99.90;;;;;;5065120;28;20235;-80
2023/01/30 07:53:59;;;;;;;5.10;1.20;;;23.60;99.90;;;;;;5082855;28;20204;-81
2023/01/30 07:56:34;;;;;;;5.28;1.83;;;23.60;99.90;;;;;;5086869;28;20209;-80
2023/01/30 07:59:05;;;;;;;5.65;1.25;;;23.50;99.90;;;;;;5077517;28;20681;-81
2023/01/30 08:01:36;;;;;;;4.18;1.17;;;23.60;99.90;;;;;;5074883;28;20259;-80
2023/01/30 08:04:07;;;;;;;3.58;1.05;;;23.60;99.90;;;;;;5075406;28;20184;-80
2023/01/30 08:06:39;;;;;;;5.40;1.30;;;23.60;99.90;;;;;;5072140;28;20684;-80
2023/01/30 08:09:12;;;;;;;5.40;0.90;;;23.50;99.90;;;;;;5071995;28;20198;-81
2023/01/30 08:11:45;;;;;;;3.67;1.20;;;23.50;99.90;;;;;;5073628;28;20199;-81
2023/01/30 08:14:16;;;;;;;5.88;1.23;;;23.50;99.90;;;;;;5055007;28;20279;-81
2023/01/30 08:16:47;;;;;;;4.55;1.00;;;23.60;99.90;;;;;;5070268;28;20649;-81
2023/01/30 08:19:18;;;;;;;9.13;1.38;;;23.60;99.90;;;;;;5067934;28;20694;-81
2023/01/30 08:21:49;;;;;;;5.05;1.42;;;23.50;99.90;;;;;;5067347;28;20230;-80
2023/01/30 08:24:22;;;;;;;7.20;1.50;;;23.50;99.90;;;;;;5073673;28;20539;-81
2023/01/30 08:26:53;;;;;;;11.45;2.40;;;23.60;99.90;;;;;;5057299;28;20231;-80
2023/01/30 08:29:24;;;;;;;7.88;2.00;;;23.60;99.90;;;;;;5069633;28;20678;-80
2023/01/30 08:31:59;;;;;;;8.82;2.80;;;23.60;99.90;;;;;;5070180;28;20676;-80
2023/01/30 08:34:31;;;;;;;9.10;2.20;;;23.50;99.90;;;;;;5072528;28;20297;-81
2023/01/30 08:37:02;;;;;;;6.75;1.30;;;23.50;99.90;;;;;;5072805;28;20196;-80
2023/01/30 08:39:35;;;;;;;8.77;3.95;;;23.50;99.90;;;;;;5070243;28;20227;-81
2023/01/30 08:42:06;;;;;;;7.22;2.08;;;23.50;99.90;;;;;;5072167;28;20226;-81
2023/01/30 08:44:37;;;;;;;9.13;1.63;;;23.50;99.90;;;;;;5073282;28;20215;-81
2023/01/30 08:47:08;;;;;;;8.93;1.95;;;23.50;99.90;;;;;;5072173;28;20214;-81
2023/01/30 08:49:39;;;;;;;5.50;1.60;;;23.40;99.90;;;;;;5072647;28;20196;-81
2023/01/30 08:52:10;;;;;;;7.35;1.40;;;23.40;99.90;;;;;;5072269;28;20196;-81
2023/01/30 08:54:43;;;;;;;6.63;1.58;;;23.40;99.90;;;;;;5082404;28;20187;-80
2023/01/30 08:57:15;;;;;;;4.93;1.40;;;23.40;99.90;;;;;;5077559;28;20287;-81
2023/01/30 08:59:46;;;;;;;6.57;1.50;;;23.30;99.90;;;;;;5070574;28;20572;-82
2023/01/30 09:02:17;;;;;;;10.30;1.70;;;23.30;99.90;;;;;;5065322;28;20570;-81
2023/01/30 09:04:48;;;;;;;5.90;1.30;;;23.30;99.90;;;;;;5073483;28;20196;-81
2023/01/30 09:07:19;;;;;;;6.93;1.17;;;23.20;99.90;;;;;;5072355;28;20206;-81
2023/01/30 09:09:52;;;;;;;4.65;1.05;;;23.20;99.90;;;;;;5058036;28;20689;-81
2023/01/30 09:12:23;;;;;;;5.57;1.67;;;23.20;99.90;;;;;;5072166;28;20578;-82
2023/01/30 09:14:54;;;;;;;5.43;1.13;;;23.30;99.90;;;;;;5065268;28;20198;-81
2023/01/30 09:17:25;;;;;;;6.38;1.50;;;23.30;99.90;;;;;;5061902;28;20286;-81
2023/01/30 09:19:56;;;;;;;5.65;1.20;;;23.30;99.90;;;;;;5059420;28;20334;-82
2023/01/30 09:22:27;;;;;;;5.22;1.00;;;23.20;99.90;;;;;;5069802;28;20223;-81
2023/01/30 09:25:00;;;;;;;8.68;1.50;;;23.20;99.90;;;;;;5071932;28;20222;-81
2023/01/30 09:27:31;;;;;;;5.07;1.10;;;23.10;99.90;;;;;;5070569;28;20192;-81
2023/01/30 09:30:02;;;;;;;8.98;1.65;;;23.10;99.90;;;;;;5071811;28;20195;-81
2023/01/30 09:32:36;;;;;;;3.90;1.20;;;23.20;99.90;;;;;;5070797;28;20647;-81
2023/01/30 09:35:07;;;;;;;5.85;1.58;;;23.10;99.90;;;;;;5069434;28;20279;-81
2023/01/30 09:37:38;;;;;;;7.43;1.67;;;23.10;99.90;;;;;;5057520;28;20238;-80
2023/01/30 09:40:16;;;;;;;7.80;1.77;;;23.10;99.90;;;;;;5063195;28;20197;-81
2023/01/30 09:43:12;;;;;;;12.23;2.75;;;23.10;99.90;;;;;;5057203;28;20697;-81
2023/01/30 09:45:55;;;;;;;5.70;1.60;;;23.10;99.90;;;;;;5056205;28;20624;-81
2023/01/30 09:48:31;;;;;;;8.13;1.80;;;23.10;99.90;;;;;;5063364;28;20208;-80
2023/01/30 09:51:32;;;;;;;8.25;1.85;;;23.10;99.90;;;;;;5068820;28;20196;-80
2023/01/30 09:54:16;;;;;;;9.98;2.38;;;23.20;99.90;;;;;;5073014;28;20196;-80
2023/01/30 09:56:53;;;;;;;11.27;2.45;;;23.20;99.90;;;;;;5081760;28;20195;-81
2023/01/30 09:59:30;;;;;;;11.82;2.55;;;23.10;99.90;;;;;;5060864;28;20207;-81
2023/01/30 10:02:18;;;;;;;8.98;2.45;;;23.10;99.90;;;;;;5061463;28;20204;-81
2023/01/30 10:04:49;;;;;;;8.52;2.25;;;23.10;99.90;;;;;;5066049;28;20199;-80
2023/01/30 10:07:29;;;;;;;8.45;2.53;;;23.10;99.90;;;;;;5055582;28;20192;-80
2023/01/30 10:10:06;;;;;;;7.72;2.42;;;23.10;99.90;;;;;;5059917;28;20722;-81
2023/01/30 10:12:49;;;;;;;8.93;2.30;;;23.00;99.90;;;;;;5057700;28;20196;-80
2023/01/30 10:15:40;;;;;;;8.80;2.15;;;22.90;99.90;;;;;;5059586;28;20282;-80
2023/01/30 10:18:40;;;;;;;7.35;2.40;;;23.00;99.90;;;;;;5066618;28;20188;-81
2023/01/30 10:21:26;;;;;;;12.07;3.10;;;22.90;99.90;;;;;;5066793;28;20256;-81
2023/01/30 10:24:23;;;;;;;9.10;2.40;;;22.90;99.90;;;;;;5069957;28;20211;-81
2023/01/30 10:26:55;;;;;;;8.18;2.85;;;22.80;99.90;;;;;;5070701;28;20784;-81
2023/01/30 10:29:33;;;;;;;10.55;2.78;;;22.80;99.90;;;;;;5058930;28;20199;-81
2023/01/30 10:32:08;;;;;;;11.30;3.05;;;22.80;99.90;;;;;;5069883;28;20616;-80
2023/01/30 10:34:42;;;;;;;7.15;2.42;;;22.70;99.90;;;;;;5066468;28;20199;-80
2023/01/30 10:37:18;;;;;;;7.80;2.58;;;22.70;99.90;;;;;;5070356;28;20196;-80
2023/01/30 10:39:56;;;;;;;8.45;2.78;;;22.70;99.90;;;;;;5070149;28;20658;-80
2023/01/30 10:42:33;;;;;;;8.93;2.72;;;22.70;99.90;;;;;;5065076;28;20224;-80
2023/01/30 10:45:14;;;;;;;7.20;2.50;;;22.60;99.90;;;;;;5066633;28;20215;-80
2023/01/30 10:47:56;;;;;;;9.82;2.30;;;22.60;99.90;;;;;;5064596;28;20210;-81
2023/01/30 10:50:35;;;;;;;5.75;2.28;;;22.60;99.90;;;;;;5068667;28;20196;-81
2023/01/30 10:53:15;;;;;;;8.07;2.53;;;22.70;99.90;;;;;;5067828;28;20202;-81
2023/01/30 10:55:50;;;;;;;7.25;1.98;;;22.60;99.90;;;;;;5079606;28;20204;-79
2023/01/30 10:58:29;;;;;;;5.75;1.70;;;22.60;99.90;;;;;;5070826;28;20343;-80
2023/01/30 11:01:06;;;;;;;4.80;2.03;;;22.70;99.90;;;;;;5070213;28;20574;-81
2023/01/30 11:03:43;;;;;;;7.47;2.05;;;22.70;99.90;;;;;;5069085;28;20227;-80
2023/01/30 11:06:17;;;;;;;7.07;1.98;;;22.80;99.90;;;;;;5068253;28;20208;-80
2023/01/30 11:08:48;;;;;;;5.95;1.80;;;22.70;99.90;;;;;;5070167;28;20203;-81
2023/01/30 11:11:29;;;;;;;8.05;2.25;;;22.70;99.90;;;;;;5069821;28;20192;-80
2023/01/30 11:14:08;;;;;;;8.50;1.90;;;22.60;99.90;;;;;;5069742;28;20196;-80
2023/01/30 11:16:48;;;;;;;8.23;2.15;;;22.60;99.90;;;;;;5069030;28;20196;-80
2023/01/30 11:19:22;;;;;;;10.98;2.80;;;22.70;99.90;;;;;;5065898;28;20578;-81
2023/01/30 11:21:56;;;;;;;6.43;2.00;;;22.70;99.90;;;;;;5058644;28;20307;-80
2023/01/30 11:24:32;;;;;;;6.03;2.00;;;22.60;99.90;;;;;;5070152;28;20195;-80
2023/01/30 11:27:14;;;;;;;7.20;2.20;;;22.60;99.90;;;;;;5055668;28;20283;-79
2023/01/30 11:29:46;;;;;;;7.03;1.90;;;22.70;99.90;;;;;;5069393;28;20603;-79
2023/01/30 11:32:27;;;;;;;6.38;1.75;;;22.60;99.90;;;;;;5068993;28;20273;-79
2023/01/30 11:35:18;;;;;;;5.75;1.90;;;22.70;99.90;;;;;;5060545;28;20203;-80
2023/01/30 11:37:50;;;;;;;5.90;2.05;;;22.70;99.90;;;;;;5057437;28;20303;-80
2023/01/30 11:40:26;;;;;;;8.48;2.30;;;22.60;99.90;;;;;;5061189;28;20223;-80
2023/01/30 11:43:04;;;;;;;8.80;2.08;;;22.60;99.90;;;;;;5067364;28;20293;-80
2023/01/30 11:45:40;;;;;;;8.68;2.20;;;22.70;99.90;;;;;;5069646;28;20214;-81
2023/01/30 11:48:18;;;;;;;5.85;2.10;;;22.60;99.90;;;;;;5069264;28;20197;-81
2023/01/30 11:50:51;;;;;;;7.72;2.17;;;22.60;99.90;;;;;;5061662;28;20202;-80
2023/01/30 11:53:31;;;;;;;7.10;1.83;;;22.60;99.90;;;;;;5060557;28;20654;-80
2023/01/30 11:56:07;;;;;;;9.40;2.20;;;22.60;99.90;;;;;;5084888;28;20271;-80
2023/01/30 11:58:45;;;;;;;8.60;2.10;;;22.60;99.90;;;;;;5068574;28;20204;-80
2023/01/30 12:01:17;;;;;;;8.63;2.33;;;22.60;99.90;;;;;;5070008;28;20211;-81
2023/01/30 12:03:55;;;;;;;8.40;2.20;;;22.60;99.90;;;;;;5069624;28;20231;-80
2023/01/30 12:06:31;;;;;;;10.25;2.30;;;22.70;99.90;;;;;;5069272;28;20642;-80
2023/01/30 12:09:02;;;;;;;6.88;2.13;;;22.70;99.90;;;;;;5067410;28;20196;-80
2023/01/30 12:11:43;;;;;;;8.00;1.92;;;22.70;99.90;;;;;;5060372;28;20201;-80
2023/01/30 12:14:36;;;;;;;10.13;2.45;;;22.60;99.90;;;;;;5066701;28;20619;-80
2023/01/30 12:17:17;;;;;;;9.60;2.60;;;22.70;99.90;;;;;;5058969;28;20200;-80
2023/01/30 12:20:05;;;;;;;9.75;2.35;;;22.70;99.90;;;;;;5064525;28;20193;-79
2023/01/30 12:22:40;;;;;;;9.02;2.30;;;22.70;99.90;;;;;;5069230;28;20309;-79
2023/01/30 12:25:17;;;;;;;9.27;2.00;;;22.70;99.90;;;;;;5069244;28;20202;-81
2023/01/30 12:27:59;;;;;;;10.15;2.42;;;22.70;99.90;;;;;;5066960;28;20202;-81
2023/01/30 12:30:40;;;;;;;11.38;2.72;;;22.70;99.90;;;;;;5071285;28;20196;-80
2023/01/30 12:33:16;;;;;;;12.52;2.67;;;22.70;99.90;;;;;;5064198;28;20196;-81
2023/01/30 12:36:07;;;;;;;10.00;2.50;;;22.70;99.90;;;;;;5072564;28;20512;-80
2023/01/30 12:39:02;;;;;;;8.95;2.50;;;22.60;99.90;;;;;;5072144;28;20551;-81
2023/01/30 12:41:50;;;;;;;10.20;2.35;;;22.60;99.90;;;;;;5075500;28;20196;-81
2023/01/30 12:44:33;;;;;;;9.65;2.55;;;22.60;99.90;;;;;;5072070;28;20232;-80
2023/01/30 12:47:33;;;;;;;12.70;2.65;;;22.60;99.90;;;;;;5069656;28;20206;-80
2023/01/30 12:50:25;;;;;;;7.15;2.05;;;22.60;99.90;;;;;;5071388;28;20202;-81
2023/01/30 12:53:28;;;;;;;6.38;2.22;;;22.60;99.90;;;;;;5076991;28;20223;-81
2023/01/30 12:56:26;;;;;;;7.47;2.03;;;22.60;99.90;;;;;;5077462;28;20192;-81
2023/01/30 12:59:04;;;;;;;7.25;2.65;;;22.60;99.90;;;;;;5069702;28;20599;-80
2023/01/30 13:01:44;;;;;;;6.72;2.30;;;22.50;99.90;;;;;;5067526;28;20198;-81
2023/01/30 13:04:28;;;;;;;10.27;2.30;;;22.60;99.90;;;;;;5076000;28;20219;-81
2023/01/30 13:07:10;;;;;;;6.53;2.13;;;22.60;99.90;;;;;;5063023;28;20193;-81
2023/01/30 13:10:10;;;;;;;11.18;2.38;;;22.60;99.90;;;;;;5069662;28;20206;-82
2023/01/30 13:12:52;;;;;;;9.80;2.25;;;22.60;99.90;;;;;;5075748;28;20279;-81
2023/01/30 13:15:36;;;;;;;10.02;2.10;;;22.60;99.90;;;;;;5078037;28;20225;-81
2023/01/30 13:18:14;;;;;;;8.23;2.10;;;22.50;99.90;;;;;;5069933;28;20570;-81
2023/01/30 13:20:57;;;;;;;7.32;2.17;;;22.60;99.90;;;;;;5057301;28;20314;-81
2023/01/30 13:23:37;;;;;;;11.98;2.40;;;22.60;99.90;;;;;;5070795;28;20215;-81
2023/01/30 13:26:14;;;;;;;9.57;2.10;;;22.50;99.90;;;;;;5057028;28;20578;-81
2023/01/30 13:28:48;;;;;;;8.43;2.10;;;22.50;99.90;;;;;;5067839;28;20568;-81
2023/01/30 13:31:22;;;;;;;6.88;2.10;;;22.50;99.90;;;;;;5071819;28;20198;-81
2023/01/30 13:33:57;;;;;;;11.88;2.20;;;22.50;99.90;;;;;;5064063;28;20206;-81